createdAt,value
2022-09-18T00:00:18.765Z,10.56
2022-09-18T00:03:28.933Z,10.56
2022-09-18T00:06:21.970Z,10.50
2022-09-18T00:09:14.816Z,10.44
2022-09-18T00:12:03.182Z,10.38
2022-09-18T00:14:51.494Z,10.25
2022-09-18T00:17:40.244Z,10.25
2022-09-18T00:20:28.403Z,10.25
2022-09-18T00:23:16.327Z,10.25
2022-09-18T00:26:06.369Z,10.25
2022-09-18T00:28:56.021Z,10.25
2022-09-18T00:31:45.568Z,10.25
2022-09-18T00:34:33.682Z,10.25
2022-09-18T00:37:21.709Z,10.13
2022-09-18T00:40:11.129Z,10.13
2022-09-18T00:42:59.343Z,10.06
2022-09-18T00:45:58.489Z,10.00
2022-09-18T00:49:17.148Z,9.94
2022-09-18T00:52:06.265Z,10.00
2022-09-18T00:55:02.665Z,10.06
2022-09-18T00:57:56.879Z,10.00
2022-09-18T01:00:45.128Z,9.94
2022-09-18T01:03:33.459Z,9.81
2022-09-18T01:06:34.737Z,9.75
2022-09-18T01:10:05.135Z,9.75
2022-09-18T01:12:58.663Z,9.75
2022-09-18T01:16:10.237Z,9.69
2022-09-18T01:19:19.699Z,9.69
2022-09-18T01:22:31.224Z,9.75
2022-09-18T01:25:31.825Z,9.88
2022-09-18T01:28:44.625Z,9.94
2022-09-18T01:31:54.208Z,10.00
2022-09-18T01:34:45.517Z,10.13
2022-09-18T01:38:17.640Z,10.19
2022-09-18T01:41:14.803Z,10.31
2022-09-18T01:44:11.560Z,10.31
2022-09-18T01:47:03.360Z,10.31
2022-09-18T01:49:56.887Z,10.31
2022-09-18T01:53:14.272Z,10.38
2022-09-18T01:56:15.632Z,10.38
2022-09-18T01:59:13.555Z,10.38
2022-09-18T02:02:41.392Z,10.44
2022-09-18T02:05:43.134Z,10.38
2022-09-18T02:08:53.463Z,10.44
2022-09-18T02:11:50.823Z,10.44
2022-09-18T02:14:45.094Z,10.38
2022-09-18T02:18:07.407Z,10.38
2022-09-18T02:21:02.631Z,10.38
2022-09-18T02:23:53.780Z,10.38
2022-09-18T02:26:44.754Z,10.38
2022-09-18T02:29:33.577Z,10.44
2022-09-18T02:32:21.598Z,10.44
2022-09-18T02:35:11.856Z,10.50
2022-09-18T02:38:41.060Z,10.44
2022-09-18T02:42:07.348Z,10.50
2022-09-18T02:45:07.620Z,10.50
2022-09-18T02:48:34.758Z,10.50
2022-09-18T02:52:22.062Z,10.50
2022-09-18T02:55:31.944Z,10.44
2022-09-18T02:58:32.509Z,10.44
2022-09-18T03:01:25.508Z,10.44
2022-09-18T03:04:20.091Z,10.44
2022-09-18T03:07:37.834Z,10.44
2022-09-18T03:10:26.640Z,10.38
2022-09-18T03:13:15.099Z,10.38
2022-09-18T03:16:03.751Z,10.38
2022-09-18T03:18:51.702Z,10.38
2022-09-18T03:21:41.612Z,10.44
2022-09-18T03:24:31.394Z,10.44
2022-09-18T03:27:19.675Z,10.44
2022-09-18T03:30:09.421Z,10.44
2022-09-18T03:32:58.332Z,10.50
2022-09-18T03:35:48.438Z,10.44
2022-09-18T03:38:41.078Z,10.38
2022-09-18T03:41:29.035Z,10.38
2022-09-18T03:44:18.184Z,10.31
2022-09-18T03:47:12.039Z,10.31
2022-09-18T03:50:00.235Z,10.38
2022-09-18T03:52:51.355Z,10.38
2022-09-18T03:55:57.929Z,10.44
2022-09-18T03:59:06.292Z,10.44
2022-09-18T04:02:15.838Z,10.44
2022-09-18T04:05:22.853Z,10.44
2022-09-18T04:08:29.862Z,10.31
2022-09-18T04:11:28.041Z,10.31
2022-09-18T04:14:17.100Z,10.31
2022-09-18T04:17:05.872Z,10.31
2022-09-18T04:19:54.992Z,10.31
2022-09-18T04:22:43.042Z,10.25
2022-09-18T04:25:31.283Z,10.25
2022-09-18T04:28:20.240Z,10.25
2022-09-18T04:31:09.376Z,10.25
2022-09-18T04:33:58.693Z,10.31
2022-09-18T04:36:46.999Z,10.38
2022-09-18T04:39:35.976Z,10.38
2022-09-18T04:42:24.517Z,10.44
2022-09-18T04:45:13.253Z,10.50
2022-09-18T04:48:02.535Z,10.56
2022-09-18T04:50:51.055Z,10.56
2022-09-18T04:53:39.778Z,10.69
2022-09-18T04:56:28.286Z,10.75
2022-09-18T04:59:18.065Z,10.81
2022-09-18T05:02:08.158Z,10.88
2022-09-18T05:04:56.837Z,10.94
2022-09-18T05:07:53.422Z,11.06
2022-09-18T05:10:43.462Z,11.06
2022-09-18T05:13:33.080Z,11.13
2022-09-18T05:16:27.858Z,11.13
2022-09-18T05:19:39.205Z,11.13
2022-09-18T05:22:37.437Z,11.19
2022-09-18T05:25:29.977Z,11.25
2022-09-18T05:28:19.548Z,11.25
2022-09-18T05:31:10.333Z,11.38
2022-09-18T05:34:03.235Z,11.44
2022-09-18T05:36:51.678Z,11.56
2022-09-18T05:39:39.899Z,11.69
2022-09-18T05:42:27.933Z,11.75
2022-09-18T05:45:19.766Z,11.88
2022-09-18T05:48:10.247Z,11.94
2022-09-18T05:50:58.754Z,12.00
2022-09-18T05:53:50.359Z,12.19
2022-09-18T05:56:45.024Z,12.19
2022-09-18T05:59:33.145Z,12.31
2022-09-18T06:02:21.287Z,12.44
2022-09-18T06:05:37.865Z,12.63
2022-09-18T06:08:26.616Z,12.75
2022-09-18T06:11:15.810Z,12.81
2022-09-18T06:14:04.658Z,12.81
2022-09-18T06:16:55.134Z,12.81
2022-09-18T06:19:43.562Z,12.88
2022-09-18T06:22:33.248Z,13.00
2022-09-18T06:25:23.672Z,13.19
2022-09-18T06:28:12.034Z,13.25
2022-09-18T06:31:03.184Z,13.31
2022-09-18T06:33:58.214Z,13.25
2022-09-18T06:36:46.983Z,13.13
2022-09-18T06:39:58.368Z,13.19
2022-09-18T06:42:58.764Z,13.25
2022-09-18T06:46:19.365Z,13.31
2022-09-18T06:49:13.580Z,13.44
2022-09-18T06:52:03.328Z,13.75
2022-09-18T06:54:53.212Z,13.94
2022-09-18T06:57:58.597Z,14.63
2022-09-18T07:00:49.477Z,14.56
2022-09-18T07:03:43.388Z,14.81
2022-09-18T07:06:55.225Z,14.88
2022-09-18T07:09:43.612Z,15.00
2022-09-18T07:12:42.661Z,14.88
2022-09-18T07:15:31.967Z,14.94
2022-09-18T07:18:21.507Z,15.25
2022-09-18T07:21:11.006Z,15.44
2022-09-18T07:24:05.470Z,16.00
2022-09-18T07:27:08.047Z,16.31
2022-09-18T07:30:02.812Z,16.31
2022-09-18T07:32:50.826Z,16.38
2022-09-18T07:35:40.226Z,16.81
2022-09-18T07:38:28.569Z,17.19
2022-09-18T07:41:18.493Z,17.50
2022-09-18T07:44:06.471Z,18.06
2022-09-18T07:46:57.708Z,18.50
2022-09-18T07:49:46.115Z,18.50
2022-09-18T07:52:34.134Z,18.31
2022-09-18T07:55:27.918Z,18.69
2022-09-18T07:58:15.857Z,18.94
2022-09-18T08:01:12.877Z,18.38
2022-09-18T08:04:13.701Z,18.75
2022-09-18T08:07:25.122Z,18.81
2022-09-18T08:10:19.224Z,19.38
2022-09-18T08:13:40.214Z,19.81
2022-09-18T08:16:54.366Z,20.38
2022-09-18T08:20:00.545Z,20.63
2022-09-18T08:23:20.858Z,20.94
2022-09-18T08:26:09.066Z,20.69
2022-09-18T08:28:58.076Z,20.75
2022-09-18T08:31:49.795Z,20.94
2022-09-18T08:34:41.756Z,21.50
2022-09-18T08:37:36.252Z,22.00
2022-09-18T08:40:58.754Z,22.63
2022-09-18T08:44:06.115Z,22.81
2022-09-18T08:47:15.984Z,23.38
2022-09-18T08:50:26.351Z,23.44
2022-09-18T08:53:42.938Z,24.25
2022-09-18T08:56:52.735Z,24.06
2022-09-18T09:00:29.327Z,24.13
2022-09-18T09:04:08.193Z,24.38
2022-09-18T09:07:01.761Z,24.63
2022-09-18T09:10:26.760Z,25.50
2022-09-18T09:13:59.115Z,25.94
2022-09-18T09:17:01.792Z,26.25
2022-09-18T09:20:22.965Z,27.38
2022-09-18T09:23:52.818Z,27.63
2022-09-18T09:27:38.907Z,28.75
2022-09-18T09:30:56.090Z,29.19
2022-09-18T09:34:16.237Z,29.81
2022-09-18T09:37:24.026Z,30.25
2022-09-18T09:40:38.842Z,30.19
2022-09-18T09:43:53.834Z,31.75
2022-09-18T09:47:21.855Z,32.69
2022-09-18T09:50:40.198Z,33.75
2022-09-18T09:53:28.347Z,32.25
2022-09-18T09:56:38.435Z,30.06
2022-09-18T10:00:14.784Z,29.19
2022-09-18T10:03:40.875Z,29.38
2022-09-18T10:06:48.097Z,29.31
2022-09-18T10:10:05.479Z,29.31
2022-09-18T10:13:03.604Z,30.06
2022-09-18T10:16:03.687Z,30.06
2022-09-18T10:18:51.866Z,30.88
2022-09-18T10:21:42.243Z,29.31
2022-09-18T10:24:35.563Z,28.31
2022-09-18T10:27:26.039Z,29.50
2022-09-18T10:30:17.447Z,29.56
2022-09-18T10:33:52.584Z,28.56
2022-09-18T10:36:48.105Z,28.88
2022-09-18T10:39:48.578Z,27.75
2022-09-18T10:42:39.461Z,27.25
2022-09-18T10:45:56.342Z,27.00
2022-09-18T10:49:18.869Z,26.81
2022-09-18T10:52:22.000Z,27.00
2022-09-18T10:55:15.480Z,26.69
2022-09-18T10:58:15.460Z,26.69
2022-09-18T11:01:11.193Z,25.31
2022-09-18T11:04:04.587Z,24.88
2022-09-18T11:06:58.203Z,25.94
2022-09-18T11:09:49.129Z,27.25
2022-09-18T11:12:42.891Z,28.25
2022-09-18T11:15:35.539Z,27.38
2022-09-18T11:18:29.477Z,28.31
2022-09-18T11:21:33.480Z,28.75
2022-09-18T11:24:29.379Z,28.38
2022-09-18T11:27:23.717Z,27.94
2022-09-18T11:30:31.101Z,28.63
2022-09-18T11:33:33.889Z,28.88
2022-09-18T11:36:32.805Z,28.50
2022-09-18T11:39:56.879Z,29.50
2022-09-18T11:42:50.903Z,31.19
2022-09-18T11:45:57.302Z,31.25
2022-09-18T11:49:24.144Z,31.50
2022-09-18T11:52:30.982Z,32.81
2022-09-18T11:55:44.857Z,31.50
2022-09-18T11:58:45.784Z,30.63
2022-09-18T12:01:46.236Z,30.69
2022-09-18T12:05:28.271Z,29.38
2022-09-18T12:08:53.624Z,28.19
2022-09-18T12:12:09.714Z,26.38
2022-09-18T12:15:24.105Z,25.75
2022-09-18T12:18:25.935Z,24.06
2022-09-18T12:21:25.321Z,22.94
2022-09-18T12:24:16.474Z,22.06
2022-09-18T12:27:17.125Z,21.06
2022-09-18T12:30:17.689Z,19.75
2022-09-18T12:33:30.193Z,19.13
2022-09-18T12:36:48.785Z,18.88
2022-09-18T12:40:10.224Z,18.06
2022-09-18T12:43:40.916Z,17.50
2022-09-18T12:46:43.894Z,17.25
2022-09-18T12:50:28.736Z,17.06
2022-09-18T12:53:59.293Z,16.94
2022-09-18T12:56:59.225Z,16.88
2022-09-18T12:59:59.966Z,16.63
2022-09-18T13:02:58.971Z,16.06
2022-09-18T13:05:56.278Z,15.69
2022-09-18T13:08:59.259Z,15.56
2022-09-18T13:12:03.544Z,15.19
2022-09-18T13:15:09.070Z,15.06
2022-09-18T13:18:16.437Z,15.25
2022-09-18T13:21:18.219Z,15.44
2022-09-18T13:24:07.296Z,15.81
2022-09-18T13:26:57.134Z,16.06
2022-09-18T13:29:54.225Z,16.06
2022-09-18T13:32:42.462Z,16.00
2022-09-18T13:35:36.783Z,16.19
2022-09-18T13:38:31.651Z,16.25
2022-09-18T13:41:20.374Z,16.13
2022-09-18T13:44:27.488Z,16.19
2022-09-18T13:47:16.776Z,16.25
2022-09-18T13:50:08.044Z,16.06
2022-09-18T13:52:58.862Z,16.25
2022-09-18T13:55:50.774Z,16.19
2022-09-18T13:58:52.381Z,15.94
2022-09-18T14:01:40.760Z,15.94
2022-09-18T14:04:42.366Z,15.81
2022-09-18T14:07:33.342Z,15.56
2022-09-18T14:10:29.904Z,15.44
2022-09-18T14:13:33.530Z,15.44
2022-09-18T14:16:24.173Z,15.56
2022-09-18T14:19:33.996Z,15.50
2022-09-18T14:22:34.569Z,15.38
2022-09-18T14:25:46.675Z,15.19
2022-09-18T14:28:35.870Z,15.00
2022-09-18T14:31:53.037Z,14.69
2022-09-18T14:34:44.233Z,14.50
2022-09-18T14:37:36.325Z,14.31
2022-09-18T14:40:27.601Z,14.31
2022-09-18T14:43:23.308Z,14.19
2022-09-18T14:46:23.071Z,14.13
2022-09-18T14:49:34.951Z,13.94
2022-09-18T14:52:41.451Z,13.81
2022-09-18T14:55:41.169Z,13.75
2022-09-18T14:58:38.053Z,13.75
2022-09-18T15:01:34.442Z,13.56
2022-09-18T15:04:27.976Z,13.56
2022-09-18T15:07:24.827Z,13.50
2022-09-18T15:10:19.407Z,13.56
2022-09-18T15:13:16.785Z,13.50
2022-09-18T15:16:07.254Z,13.50
2022-09-18T15:18:58.825Z,13.44
2022-09-18T15:21:47.932Z,13.44
2022-09-18T15:24:35.900Z,13.38
2022-09-18T15:27:29.913Z,13.31
2022-09-18T15:30:26.708Z,13.25
2022-09-18T15:33:22.088Z,13.19
2022-09-18T15:36:34.929Z,13.13
2022-09-18T15:39:37.906Z,13.06
2022-09-18T15:42:43.599Z,13.00
2022-09-18T15:45:37.897Z,13.00
2022-09-18T15:48:51.146Z,12.88
2022-09-18T15:51:38.797Z,12.75
2022-09-18T15:54:27.971Z,12.75
2022-09-18T15:57:16.803Z,12.75
2022-09-18T16:00:10.927Z,12.69
2022-09-18T16:03:19.113Z,12.63
2022-09-18T16:06:08.790Z,12.56
2022-09-18T16:08:57.736Z,12.44
2022-09-18T16:11:47.088Z,12.44
2022-09-18T16:14:43.433Z,12.38
2022-09-18T16:17:57.929Z,12.31
2022-09-18T16:20:49.727Z,12.19
2022-09-18T16:23:55.083Z,12.19
2022-09-18T16:26:43.552Z,12.13
2022-09-18T16:29:33.370Z,12.00
2022-09-18T16:32:21.942Z,12.00
2022-09-18T16:35:15.017Z,11.94
2022-09-18T16:38:02.990Z,11.94
2022-09-18T16:40:50.904Z,11.88
2022-09-18T16:43:39.121Z,11.81
2022-09-18T16:46:50.889Z,11.81
2022-09-18T16:49:49.421Z,11.75
2022-09-18T16:52:37.435Z,11.69
2022-09-18T16:55:25.893Z,11.63
2022-09-18T16:58:17.841Z,11.63
2022-09-18T17:01:05.895Z,11.63
2022-09-18T17:03:53.847Z,11.56
2022-09-18T17:06:42.544Z,11.50
2022-09-18T17:09:30.772Z,11.50
2022-09-18T17:12:18.688Z,11.50
2022-09-18T17:15:08.955Z,11.44
2022-09-18T17:17:57.061Z,11.44
2022-09-18T17:20:46.075Z,11.38
2022-09-18T17:23:34.121Z,11.38
2022-09-18T17:26:23.208Z,11.31
2022-09-18T17:29:11.488Z,11.31
2022-09-18T17:31:59.981Z,11.31
2022-09-18T17:34:47.724Z,11.31
2022-09-18T17:37:35.752Z,11.25
2022-09-18T17:40:23.807Z,11.19
2022-09-18T17:43:15.835Z,11.06
2022-09-18T17:46:09.284Z,11.00
2022-09-18T17:48:59.731Z,10.94
2022-09-18T17:51:48.209Z,10.94
2022-09-18T17:54:36.392Z,10.88
2022-09-18T17:57:24.652Z,10.88
2022-09-18T18:00:12.882Z,10.81
2022-09-18T18:03:00.360Z,10.75
2022-09-18T18:05:53.268Z,10.69
2022-09-18T18:08:41.494Z,10.63
2022-09-18T18:11:29.856Z,10.63
2022-09-18T18:14:18.775Z,10.63
2022-09-18T18:17:07.286Z,10.56
2022-09-18T18:19:55.229Z,10.56
2022-09-18T18:22:43.354Z,10.56
2022-09-18T18:25:31.190Z,10.56
2022-09-18T18:28:19.307Z,10.56
2022-09-18T18:31:14.478Z,10.50
2022-09-18T18:34:02.788Z,10.56
2022-09-18T18:36:51.110Z,10.56
2022-09-18T18:39:55.449Z,10.56
2022-09-18T18:42:58.211Z,10.56
2022-09-18T18:45:56.704Z,10.56
2022-09-18T18:48:44.795Z,10.63
2022-09-18T18:51:40.599Z,10.63
2022-09-18T18:54:30.861Z,10.63
2022-09-18T18:57:19.116Z,10.63
2022-09-18T19:00:13.338Z,10.56
2022-09-18T19:03:02.709Z,10.56
2022-09-18T19:05:58.713Z,10.56
2022-09-18T19:08:48.554Z,10.50
2022-09-18T19:11:51.072Z,10.50
2022-09-18T19:14:38.882Z,10.44
2022-09-18T19:17:29.305Z,10.38
2022-09-18T19:20:20.107Z,10.38
2022-09-18T19:23:41.855Z,10.31
2022-09-18T19:26:48.100Z,10.25
2022-09-18T19:29:39.742Z,10.19
2022-09-18T19:32:28.319Z,10.06
2022-09-18T19:35:16.560Z,10.00
2022-09-18T19:38:54.316Z,9.94
2022-09-18T19:46:12.930Z,9.75
2022-09-18T19:49:13.409Z,9.69
2022-09-18T19:52:22.689Z,9.63
2022-09-18T19:55:16.082Z,9.63
2022-09-18T19:58:04.741Z,9.63
2022-09-18T20:00:52.466Z,9.69
2022-09-18T20:03:40.810Z,9.69
2022-09-18T20:07:04.842Z,9.69
2022-09-18T20:09:56.461Z,9.69
2022-09-18T20:13:07.439Z,9.69
2022-09-18T20:16:07.411Z,9.75
2022-09-18T20:18:55.784Z,9.75
2022-09-18T20:21:43.730Z,9.81
2022-09-18T20:25:22.123Z,9.88
2022-09-18T20:28:27.900Z,9.88
2022-09-18T20:31:18.420Z,9.94
2022-09-18T20:34:07.513Z,10.00
2022-09-18T20:36:55.471Z,10.06
2022-09-18T20:39:43.607Z,10.13
2022-09-18T20:42:33.047Z,10.19
2022-09-18T20:45:21.758Z,10.19
2022-09-18T20:48:09.585Z,10.25
2022-09-18T20:50:59.781Z,10.31
2022-09-18T20:53:48.126Z,10.31
2022-09-18T20:56:44.531Z,10.25
2022-09-18T20:59:32.517Z,10.25
2022-09-18T21:02:22.551Z,10.25
2022-09-18T21:05:14.799Z,10.19
2022-09-18T21:08:04.013Z,10.13
2022-09-18T21:10:52.344Z,10.13
2022-09-18T21:13:43.587Z,10.06
2022-09-18T21:16:36.186Z,10.00
2022-09-18T21:19:26.420Z,10.00
2022-09-18T21:22:14.516Z,10.13
2022-09-18T21:25:02.638Z,10.13
2022-09-18T21:27:55.047Z,10.13
2022-09-18T21:30:42.959Z,10.13
2022-09-18T21:33:35.044Z,10.06
2022-09-18T21:36:24.689Z,10.06
2022-09-18T21:39:14.596Z,10.00
2022-09-18T21:42:07.431Z,10.00
2022-09-18T21:44:56.310Z,9.94
2022-09-18T21:47:43.984Z,9.94
2022-09-18T21:50:35.718Z,10.00
2022-09-18T21:53:23.659Z,10.00
2022-09-18T21:56:20.038Z,10.00
2022-09-18T21:59:10.536Z,10.06
2022-09-18T22:02:00.740Z,10.06
2022-09-18T22:04:48.375Z,10.06
2022-09-18T22:07:36.521Z,10.06
2022-09-18T22:10:25.282Z,10.13
2022-09-18T22:13:13.684Z,10.06
2022-09-18T22:16:01.845Z,10.06
2022-09-18T22:18:49.832Z,10.06
2022-09-18T22:21:40.915Z,10.13
2022-09-18T22:24:29.415Z,10.13
2022-09-18T22:27:18.313Z,10.19
2022-09-18T22:30:07.865Z,10.19
2022-09-18T22:32:55.997Z,10.25
2022-09-18T22:35:43.933Z,10.25
2022-09-18T22:38:33.435Z,10.25
2022-09-18T22:41:21.858Z,10.19
2022-09-18T22:44:10.980Z,10.19
2022-09-18T22:46:58.671Z,10.19
2022-09-18T22:49:46.497Z,10.19
2022-09-18T22:52:35.628Z,10.13
2022-09-18T22:55:23.545Z,10.06
2022-09-18T22:58:11.736Z,10.00
2022-09-18T23:01:19.526Z,9.94
2022-09-18T23:04:07.962Z,9.88
2022-09-18T23:06:57.563Z,9.81
2022-09-18T23:09:45.932Z,9.81
2022-09-18T23:12:34.032Z,9.75
2022-09-18T23:15:21.981Z,9.75
2022-09-18T23:18:10.295Z,9.69
2022-09-18T23:21:11.638Z,9.63
2022-09-18T23:24:08.862Z,9.50
2022-09-18T23:26:59.287Z,9.50
2022-09-18T23:29:48.890Z,9.44
2022-09-18T23:32:37.904Z,9.38
2022-09-18T23:35:25.897Z,9.38
2022-09-18T23:38:13.593Z,9.44
2022-09-18T23:41:04.100Z,9.56
2022-09-18T23:43:54.461Z,9.56
2022-09-18T23:46:44.032Z,9.63
2022-09-18T23:49:32.159Z,9.56
2022-09-18T23:52:19.953Z,9.56
2022-09-18T23:55:08.262Z,9.63
2022-09-18T23:57:55.707Z,9.63
